createdAt,value
2018-03-11T00:00:55.294Z,92.30
2018-03-11T00:03:23.491Z,92.10
2018-03-11T00:05:51.680Z,92.10
2018-03-11T00:08:19.828Z,92.60
2018-03-11T00:10:48.104Z,92.90
2018-03-11T00:13:16.835Z,93.00
2018-03-11T00:15:44.991Z,93.30
2018-03-11T00:18:13.133Z,93.90
2018-03-11T00:20:42.243Z,93.90
2018-03-11T00:23:10.476Z,93.80
2018-03-11T00:25:39.433Z,95.10
2018-03-11T00:28:07.829Z,95.10
2018-03-11T00:30:36.122Z,96.00
2018-03-11T00:33:05.039Z,96.90
2018-03-11T00:35:34.041Z,96.30
2018-03-11T00:38:02.296Z,96.20
2018-03-11T00:40:31.070Z,94.80
2018-03-11T00:43:00.523Z,92.90
2018-03-11T00:45:28.669Z,92.90
2018-03-11T00:47:58.590Z,92.90
2018-03-11T00:50:26.902Z,93.00
2018-03-11T00:52:55.031Z,93.10
2018-03-11T00:55:23.390Z,93.20
2018-03-11T00:57:52.294Z,93.70
2018-03-11T01:00:21.183Z,93.70
2018-03-11T01:02:49.485Z,93.80
2018-03-11T01:05:17.638Z,93.60
2018-03-11T01:07:45.795Z,93.70
2018-03-11T01:10:14.753Z,93.50
2018-03-11T01:12:42.942Z,93.50
2018-03-11T01:15:11.793Z,93.40
2018-03-11T01:17:40.033Z,93.40
2018-03-11T01:20:08.186Z,93.10
2018-03-11T01:22:36.372Z,93.40
2018-03-11T01:25:04.773Z,93.00
2018-03-11T01:27:32.920Z,93.00
2018-03-11T01:30:01.087Z,93.50
2018-03-11T01:32:29.242Z,93.80
2018-03-11T01:34:57.524Z,94.30
2018-03-11T01:37:25.637Z,94.10
2018-03-11T01:39:53.813Z,94.00
2018-03-11T01:42:22.080Z,94.00
2018-03-11T01:44:51.099Z,93.90
2018-03-11T01:47:20.087Z,93.90
2018-03-11T01:49:48.260Z,93.90
2018-03-11T01:52:16.437Z,94.50
2018-03-11T01:54:44.626Z,94.20
2018-03-11T01:57:13.700Z,94.30
2018-03-11T01:59:41.842Z,94.30
2018-03-11T02:02:10.782Z,94.40
2018-03-11T02:04:39.672Z,94.40
2018-03-11T02:07:08.623Z,93.70
2018-03-11T02:09:37.716Z,93.00
2018-03-11T02:12:06.651Z,93.00
2018-03-11T02:14:34.813Z,93.00
2018-03-11T02:17:03.682Z,93.00
2018-03-11T02:19:32.605Z,92.90
2018-03-11T02:22:00.764Z,92.90
2018-03-11T02:24:28.928Z,92.60
2018-03-11T02:26:57.262Z,92.70
2018-03-11T02:29:25.872Z,92.80
2018-03-11T02:31:54.890Z,92.20
2018-03-11T02:34:23.605Z,92.20
2018-03-11T02:36:51.760Z,92.10
2018-03-11T02:39:20.030Z,92.10
2018-03-11T02:41:48.192Z,92.20
2018-03-11T02:44:16.347Z,91.90
2018-03-11T02:46:44.754Z,91.90
2018-03-11T02:49:12.905Z,91.80
2018-03-11T02:51:41.072Z,91.70
2018-03-11T02:54:10.219Z,91.90
2018-03-11T02:56:39.298Z,91.80
2018-03-11T02:59:07.558Z,91.70
2018-03-11T03:01:35.754Z,91.70
2018-03-11T03:04:04.015Z,91.60
2018-03-11T03:06:32.188Z,91.50
2018-03-11T03:09:00.360Z,91.80
2018-03-11T03:11:28.720Z,91.90
2018-03-11T03:13:57.741Z,92.00
2018-03-11T03:16:26.066Z,92.00
2018-03-11T03:18:54.238Z,92.10
2018-03-11T03:21:22.490Z,92.10
2018-03-11T03:23:50.661Z,92.20
2018-03-11T03:26:18.807Z,92.20
2018-03-11T03:28:47.045Z,92.20
2018-03-11T03:31:15.501Z,92.20
2018-03-11T03:33:44.711Z,92.70
2018-03-11T03:36:12.915Z,92.40
2018-03-11T03:38:41.931Z,92.60
2018-03-11T03:41:10.818Z,92.60
2018-03-11T03:43:39.782Z,92.60
2018-03-11T03:46:07.963Z,92.80
2018-03-11T03:48:36.164Z,93.10
2018-03-11T03:51:04.293Z,93.10
2018-03-11T03:53:32.455Z,93.00
2018-03-11T03:56:02.117Z,93.00
2018-03-11T03:58:30.254Z,93.00
2018-03-11T04:00:59.196Z,93.00
2018-03-11T04:03:27.353Z,92.90
2018-03-11T04:05:55.977Z,92.90
2018-03-11T04:08:24.241Z,92.90
2018-03-11T04:10:52.391Z,92.80
2018-03-11T04:13:20.744Z,93.00
2018-03-11T04:15:49.682Z,93.20
2018-03-11T04:18:17.936Z,93.20
2018-03-11T04:20:46.175Z,93.40
2018-03-11T04:23:15.120Z,93.50
2018-03-11T04:25:43.277Z,93.50
2018-03-11T04:28:11.493Z,93.70
2018-03-11T04:30:39.659Z,93.80
2018-03-11T04:33:07.800Z,93.90
2018-03-11T04:35:35.941Z,93.90
2018-03-11T04:38:04.273Z,93.90
2018-03-11T04:40:32.563Z,93.90
2018-03-11T04:43:00.807Z,94.00
2018-03-11T04:45:29.008Z,93.90
2018-03-11T04:47:57.228Z,94.00
2018-03-11T04:50:25.383Z,93.90
2018-03-11T04:52:53.556Z,93.70
2018-03-11T04:55:22.499Z,93.90
2018-03-11T04:57:50.795Z,93.70
2018-03-11T05:00:18.957Z,93.70
2018-03-11T05:02:47.745Z,93.60
2018-03-11T05:05:16.020Z,93.70
2018-03-11T05:07:44.181Z,93.70
2018-03-11T05:10:12.467Z,93.60
2018-03-11T05:12:40.736Z,93.60
2018-03-11T05:15:09.017Z,93.50
2018-03-11T05:17:37.426Z,93.40
2018-03-11T05:20:05.592Z,93.40
2018-03-11T05:22:33.842Z,93.30
2018-03-11T05:25:01.997Z,93.20
2018-03-11T05:27:31.082Z,93.10
2018-03-11T05:30:00.007Z,93.10
2018-03-11T05:32:28.171Z,93.10
2018-03-11T05:34:56.803Z,93.00
2018-03-11T05:37:25.623Z,93.00
2018-03-11T05:39:54.532Z,92.90
2018-03-11T05:42:22.684Z,92.90
2018-03-11T05:44:51.776Z,92.80
2018-03-11T05:47:20.681Z,92.80
2018-03-11T05:49:48.980Z,92.70
2018-03-11T05:52:17.129Z,92.70
2018-03-11T05:54:46.022Z,92.70
2018-03-11T05:57:14.386Z,92.60
2018-03-11T05:59:43.314Z,92.80
2018-03-11T06:02:11.756Z,92.80
2018-03-11T06:04:40.827Z,92.80
2018-03-11T06:07:08.993Z,92.80
2018-03-11T06:09:37.161Z,92.80
2018-03-11T06:12:06.131Z,92.90
2018-03-11T06:14:34.297Z,92.80
2018-03-11T06:17:02.472Z,92.90
2018-03-11T06:19:30.615Z,92.90
2018-03-11T06:21:59.560Z,92.80
2018-03-11T06:24:27.699Z,92.70
2018-03-11T06:26:55.883Z,92.70
2018-03-11T06:29:24.161Z,92.70
2018-03-11T06:31:52.456Z,92.60
2018-03-11T06:34:20.616Z,92.70
2018-03-11T06:36:48.786Z,92.80
2018-03-11T06:39:17.130Z,92.70
2018-03-11T06:41:45.311Z,92.60
2018-03-11T06:44:13.633Z,92.60
2018-03-11T06:46:41.888Z,92.50
2018-03-11T06:49:10.159Z,92.40
2018-03-11T06:51:39.038Z,92.30
2018-03-11T06:54:07.220Z,92.30
2018-03-11T06:56:35.414Z,92.40
2018-03-11T06:59:04.295Z,92.40
2018-03-11T07:01:32.524Z,92.30
2018-03-11T07:04:01.649Z,92.30
2018-03-11T07:06:29.845Z,92.30
2018-03-11T07:08:58.096Z,92.30
2018-03-11T07:11:26.272Z,92.40
2018-03-11T07:13:54.449Z,92.40
2018-03-11T07:16:22.734Z,92.30
2018-03-11T07:18:50.900Z,92.40
2018-03-11T07:21:19.220Z,92.40
2018-03-11T07:23:47.470Z,92.40
2018-03-11T07:26:15.618Z,92.40
2018-03-11T07:28:43.810Z,92.40
2018-03-11T07:31:11.951Z,92.50
2018-03-11T07:33:40.867Z,92.70
2018-03-11T07:36:09.063Z,92.60
2018-03-11T07:38:37.215Z,92.80
2018-03-11T07:41:05.358Z,92.80
2018-03-11T07:43:34.363Z,93.20
2018-03-11T07:46:02.549Z,92.90
2018-03-11T07:48:30.712Z,92.90
2018-03-11T07:50:59.717Z,93.20
2018-03-11T07:53:27.887Z,93.20
2018-03-11T07:55:56.151Z,93.10
2018-03-11T07:58:24.316Z,92.90
2018-03-11T08:00:52.679Z,92.80
2018-03-11T08:03:21.138Z,92.70
2018-03-11T08:05:49.472Z,92.80
2018-03-11T08:08:17.641Z,92.60
2018-03-11T08:10:46.562Z,91.80
2018-03-11T08:13:14.752Z,91.80
2018-03-11T08:15:42.913Z,91.70
2018-03-11T08:18:11.086Z,91.70
2018-03-11T08:20:39.243Z,91.70
2018-03-11T08:23:07.551Z,91.50
2018-03-11T08:25:35.720Z,91.40
2018-03-11T08:28:03.890Z,91.30
2018-03-11T08:30:32.130Z,91.30
2018-03-11T08:33:00.928Z,91.20
2018-03-11T08:35:29.156Z,90.90
2018-03-11T08:37:58.095Z,90.60
2018-03-11T08:40:26.329Z,90.60
2018-03-11T08:42:54.496Z,90.50
2018-03-11T08:45:22.651Z,90.40
2018-03-11T08:47:50.956Z,90.70
2018-03-11T08:50:19.224Z,90.80
2018-03-11T08:52:48.189Z,90.80
2018-03-11T08:55:16.345Z,91.10
2018-03-11T08:57:44.523Z,90.70
2018-03-11T09:00:12.730Z,90.60
2018-03-11T09:02:41.043Z,90.50
2018-03-11T09:05:09.413Z,90.50
2018-03-11T09:07:37.562Z,90.40
2018-03-11T09:10:05.856Z,90.40
2018-03-11T09:12:34.018Z,90.60
2018-03-11T09:15:02.174Z,90.20
2018-03-11T09:17:30.408Z,90.10
2018-03-11T09:19:58.670Z,89.70
2018-03-11T09:22:26.939Z,89.10
2018-03-11T09:24:55.089Z,89.10
2018-03-11T09:27:23.264Z,89.90
2018-03-11T09:29:52.410Z,89.00
2018-03-11T09:32:20.551Z,89.00
2018-03-11T09:34:49.483Z,89.40
2018-03-11T09:37:18.014Z,89.30
2018-03-11T09:39:47.235Z,88.30
2018-03-11T09:42:15.381Z,88.30
2018-03-11T09:44:44.622Z,87.70
2018-03-11T09:47:13.025Z,87.60
2018-03-11T09:49:41.196Z,88.70
2018-03-11T09:52:09.342Z,89.10
2018-03-11T09:54:37.627Z,90.00
2018-03-11T09:57:05.810Z,90.10
2018-03-11T09:59:34.071Z,90.30
2018-03-11T10:02:03.272Z,90.70
2018-03-11T10:04:31.442Z,90.90
2018-03-11T10:06:59.641Z,91.10
2018-03-11T10:09:28.196Z,90.90
2018-03-11T10:11:56.540Z,90.60
2018-03-11T10:14:24.914Z,89.50
2018-03-11T10:17:03.028Z,87.80
2018-03-11T10:19:31.981Z,86.40
2018-03-11T10:22:00.123Z,86.10
2018-03-11T10:24:28.302Z,84.80
2018-03-11T10:26:57.487Z,83.80
2018-03-11T10:29:26.397Z,84.70
2018-03-11T10:31:54.578Z,84.70
2018-03-11T10:34:23.413Z,82.30
2018-03-11T10:36:51.561Z,81.20
2018-03-11T10:39:19.736Z,80.40
2018-03-11T10:41:47.890Z,79.40
2018-03-11T10:44:16.179Z,78.80
2018-03-11T10:46:44.402Z,78.90
2018-03-11T10:49:12.672Z,78.90
2018-03-11T10:51:40.788Z,77.50
2018-03-11T10:54:08.985Z,77.30
2018-03-11T10:56:37.175Z,77.30
2018-03-11T10:59:05.489Z,77.80
2018-03-11T11:01:39.446Z,78.10
2018-03-11T11:04:26.422Z,76.60
2018-03-11T11:06:54.591Z,76.60
2018-03-11T11:09:23.118Z,74.10
2018-03-11T11:11:51.357Z,72.60
2018-03-11T11:14:19.514Z,72.70
2018-03-11T11:16:48.413Z,71.40
2018-03-11T11:19:16.606Z,71.40
2018-03-11T11:21:44.821Z,71.30
2018-03-11T11:24:12.991Z,71.10
2018-03-11T11:26:41.202Z,71.30
2018-03-11T11:29:10.119Z,69.90
2018-03-11T11:31:38.269Z,69.90
2018-03-11T11:34:06.444Z,68.80
2018-03-11T11:36:35.374Z,66.90
2018-03-11T11:39:03.537Z,66.90
2018-03-11T11:41:31.800Z,67.90
2018-03-11T11:43:59.947Z,67.90
2018-03-11T11:46:28.872Z,66.80
2018-03-11T11:48:57.097Z,66.80
2018-03-11T11:51:25.364Z,65.30
2018-03-11T11:53:53.546Z,65.10
2018-03-11T11:56:22.005Z,65.00
2018-03-11T11:58:50.191Z,65.70
2018-03-11T12:01:18.333Z,66.20
2018-03-11T12:03:46.500Z,65.40
2018-03-11T12:06:14.649Z,65.50
2018-03-11T12:08:42.822Z,64.70
2018-03-11T12:11:11.763Z,64.40
2018-03-11T12:13:40.039Z,64.40
2018-03-11T12:16:08.199Z,64.40
2018-03-11T12:18:36.432Z,64.00
2018-03-11T12:21:05.341Z,63.80
2018-03-11T12:23:34.374Z,64.70
2018-03-11T12:26:04.087Z,64.30
2018-03-11T12:28:32.410Z,64.30
2018-03-11T12:31:01.496Z,63.50
2018-03-11T12:33:30.422Z,63.60
2018-03-11T12:35:58.714Z,63.60
2018-03-11T12:38:26.990Z,63.30
2018-03-11T12:40:55.238Z,63.70
2018-03-11T12:43:23.465Z,63.50
2018-03-11T12:45:51.630Z,64.30
2018-03-11T12:48:19.774Z,63.10
2018-03-11T12:50:47.938Z,63.20
2018-03-11T12:53:16.389Z,63.40
2018-03-11T12:55:45.309Z,64.40
2018-03-11T12:58:13.682Z,63.80
2018-03-11T13:00:42.608Z,62.40
2018-03-11T13:03:10.925Z,62.30
2018-03-11T13:05:39.078Z,61.40
2018-03-11T13:08:07.784Z,60.90
2018-03-11T13:10:36.044Z,60.90
2018-03-11T13:13:04.208Z,59.20
2018-03-11T13:15:32.475Z,59.80
2018-03-11T13:18:01.526Z,61.40
2018-03-11T13:20:41.670Z,61.50
2018-03-11T13:23:10.618Z,59.70
2018-03-11T13:25:38.779Z,59.70
2018-03-11T13:28:19.055Z,59.70
2018-03-11T13:30:47.214Z,60.70
2018-03-11T13:33:27.161Z,60.50
2018-03-11T13:35:55.321Z,60.70
2018-03-11T13:38:35.907Z,60.50
2018-03-11T13:41:04.039Z,61.70
2018-03-11T13:43:33.004Z,61.30
2018-03-11T13:46:14.793Z,62.60
2018-03-11T13:48:42.953Z,62.50
2018-03-11T13:51:11.250Z,61.60
2018-03-11T13:53:46.498Z,60.90
2018-03-11T13:56:14.634Z,59.80
2018-03-11T13:58:45.441Z,60.80
2018-03-11T14:01:14.373Z,59.60
2018-03-11T14:03:42.510Z,59.60
2018-03-11T14:06:10.675Z,59.80
2018-03-11T14:08:38.856Z,60.80
2018-03-11T14:11:07.007Z,61.40
2018-03-11T14:13:35.285Z,60.60
2018-03-11T14:16:03.574Z,60.10
2018-03-11T14:18:31.742Z,59.20
2018-03-11T14:21:00.065Z,59.40
2018-03-11T14:23:28.308Z,59.50
2018-03-11T14:25:56.485Z,59.30
2018-03-11T14:28:24.832Z,59.10
2018-03-11T14:30:53.771Z,60.40
2018-03-11T14:33:22.755Z,60.40
2018-03-11T14:35:51.653Z,59.50
2018-03-11T14:38:19.830Z,59.40
2018-03-11T14:40:47.996Z,59.50
2018-03-11T14:43:16.150Z,58.70
2018-03-11T14:45:44.348Z,58.90
2018-03-11T14:48:12.516Z,58.90
2018-03-11T14:50:40.689Z,59.60
2018-03-11T14:53:08.836Z,59.70
2018-03-11T14:55:37.108Z,59.60
2018-03-11T14:58:06.030Z,60.30
2018-03-11T15:00:35.325Z,60.30
2018-03-11T15:03:03.577Z,60.00
2018-03-11T15:05:31.736Z,59.80
2018-03-11T15:08:00.129Z,59.60
2018-03-11T15:10:32.291Z,60.30
2018-03-11T15:13:05.192Z,60.40
2018-03-11T15:15:33.349Z,60.30
2018-03-11T15:18:01.615Z,60.80
2018-03-11T15:20:30.540Z,59.70
2018-03-11T15:22:59.275Z,59.60
2018-03-11T15:25:27.461Z,59.70
2018-03-11T15:27:56.720Z,61.10
2018-03-11T15:30:25.756Z,60.80
2018-03-11T15:32:53.970Z,60.70
2018-03-11T15:35:22.123Z,61.20
2018-03-11T15:37:51.160Z,62.10
2018-03-11T15:40:19.587Z,62.00
2018-03-11T15:42:48.522Z,62.30
2018-03-11T15:45:16.679Z,62.30
2018-03-11T15:47:44.940Z,62.00
2018-03-11T15:50:13.222Z,62.40
2018-03-11T15:52:41.375Z,62.20
2018-03-11T15:55:10.301Z,62.30
2018-03-11T15:57:38.471Z,62.30
2018-03-11T16:00:06.635Z,62.60
2018-03-11T16:02:34.789Z,62.20
2018-03-11T16:05:03.714Z,62.80
2018-03-11T16:07:31.881Z,62.80
2018-03-11T16:10:00.032Z,62.90
2018-03-11T16:12:28.955Z,62.40
2018-03-11T16:14:57.214Z,62.20
2018-03-11T16:17:25.364Z,62.00
2018-03-11T16:19:54.307Z,60.20
2018-03-11T16:22:22.646Z,60.20
2018-03-11T16:24:51.534Z,61.60
2018-03-11T16:27:19.797Z,61.50
2018-03-11T16:29:48.702Z,62.20
2018-03-11T16:32:17.700Z,62.10
2018-03-11T16:34:46.040Z,62.10
2018-03-11T16:37:14.165Z,62.20
2018-03-11T16:39:42.350Z,62.30
2018-03-11T16:42:10.550Z,62.80
2018-03-11T16:44:38.696Z,63.00
2018-03-11T16:47:07.043Z,63.40
2018-03-11T16:49:35.954Z,63.40
2018-03-11T16:52:04.179Z,63.40
2018-03-11T16:54:32.356Z,63.70
2018-03-11T16:57:01.207Z,63.40
2018-03-11T16:59:29.354Z,62.90
2018-03-11T17:01:57.489Z,62.30
2018-03-11T17:04:25.714Z,61.80
2018-03-11T17:06:54.101Z,62.00
2018-03-11T17:09:22.358Z,62.70
2018-03-11T17:11:50.559Z,62.80
2018-03-11T17:14:18.737Z,63.90
2018-03-11T17:16:46.907Z,64.50
2018-03-11T17:19:15.290Z,65.50
2018-03-11T17:21:43.454Z,66.30
2018-03-11T17:24:11.697Z,67.00
2018-03-11T17:26:40.633Z,68.60
2018-03-11T17:29:08.920Z,68.60
2018-03-11T17:31:37.198Z,69.30
2018-03-11T17:34:05.524Z,70.00
2018-03-11T17:36:33.676Z,70.50
2018-03-11T17:39:02.593Z,72.30
2018-03-11T17:41:30.772Z,72.00
2018-03-11T17:43:58.965Z,72.30
2018-03-11T17:46:27.132Z,72.70
2018-03-11T17:48:55.362Z,72.80
2018-03-11T17:51:23.505Z,73.60
2018-03-11T17:53:51.818Z,73.80
2018-03-11T17:56:20.190Z,74.30
2018-03-11T17:58:48.346Z,74.70
2018-03-11T18:01:16.695Z,75.10
2018-03-11T18:03:44.895Z,75.50
2018-03-11T18:06:13.236Z,76.00
2018-03-11T18:08:41.388Z,76.50
2018-03-11T18:11:09.602Z,76.60
2018-03-11T18:13:37.772Z,76.80
2018-03-11T18:16:05.954Z,77.20
2018-03-11T18:18:34.296Z,77.90
2018-03-11T18:21:02.488Z,78.30
2018-03-11T18:23:30.639Z,78.80
2018-03-11T18:25:59.663Z,79.70
2018-03-11T18:28:27.818Z,79.70
2018-03-11T18:30:56.033Z,79.10
2018-03-11T18:33:24.299Z,79.80
2018-03-11T18:35:52.521Z,79.20
2018-03-11T18:38:20.798Z,79.30
2018-03-11T18:40:49.744Z,79.20
2018-03-11T18:43:18.005Z,79.10
2018-03-11T18:45:47.460Z,79.00
2018-03-11T18:48:16.401Z,79.30
2018-03-11T18:50:44.541Z,79.30
2018-03-11T18:53:13.459Z,79.50
2018-03-11T18:55:42.240Z,79.50
2018-03-11T18:58:10.414Z,79.70
2018-03-11T19:00:40.053Z,79.70
2018-03-11T19:03:08.265Z,79.30
2018-03-11T19:05:37.181Z,79.70
2018-03-11T19:08:05.360Z,79.50
2018-03-11T19:10:33.525Z,79.70
2018-03-11T19:13:01.797Z,79.70
2018-03-11T19:15:29.967Z,79.90
2018-03-11T19:17:58.181Z,80.00
2018-03-11T19:20:26.355Z,79.70
2018-03-11T19:22:54.512Z,79.30
2018-03-11T19:25:22.863Z,79.10
2018-03-11T19:27:51.775Z,78.90
2018-03-11T19:30:19.924Z,78.90
2018-03-11T19:32:48.857Z,79.10
2018-03-11T19:35:17.005Z,79.10
2018-03-11T19:37:45.160Z,79.00
2018-03-11T19:40:14.127Z,80.10
2018-03-11T19:42:42.901Z,79.30
2018-03-11T19:45:11.051Z,79.50
2018-03-11T19:47:40.155Z,79.90
2018-03-11T19:50:08.431Z,79.90
2018-03-11T19:52:36.596Z,79.90
2018-03-11T19:55:04.803Z,80.10
2018-03-11T19:57:32.951Z,80.10
2018-03-11T20:00:01.242Z,80.60
2018-03-11T20:02:29.527Z,81.20
2018-03-11T20:04:57.827Z,81.00
2018-03-11T20:07:26.786Z,82.00
2018-03-11T20:09:56.483Z,81.90
2018-03-11T20:12:24.763Z,81.90
2018-03-11T20:14:52.948Z,82.00
2018-03-11T20:17:22.146Z,82.90
2018-03-11T20:19:50.284Z,82.90
2018-03-11T20:22:18.537Z,83.80
2018-03-11T20:24:47.632Z,83.30
2018-03-11T20:27:16.632Z,83.60
2018-03-11T20:29:44.863Z,83.50
2018-03-11T20:32:13.038Z,83.50
2018-03-11T20:34:41.180Z,83.70
2018-03-11T20:37:09.899Z,84.20
2018-03-11T20:39:38.529Z,84.50
2018-03-11T20:42:06.882Z,84.70
2018-03-11T20:44:35.294Z,84.60
2018-03-11T20:47:03.448Z,84.90
2018-03-11T20:49:31.747Z,85.20
2018-03-11T20:51:59.886Z,85.00
2018-03-11T20:54:28.196Z,85.10
2018-03-11T20:56:56.448Z,85.50
2018-03-11T20:59:25.365Z,85.70
2018-03-11T21:01:53.546Z,85.60
2018-03-11T21:04:21.682Z,85.90
2018-03-11T21:06:50.818Z,86.10
2018-03-11T21:09:19.094Z,86.10
2018-03-11T21:11:47.448Z,86.00
2018-03-11T21:14:17.103Z,86.40
2018-03-11T21:16:45.265Z,86.40
2018-03-11T21:19:13.424Z,87.00
2018-03-11T21:21:41.608Z,86.90
2018-03-11T21:24:09.790Z,86.90
2018-03-11T21:26:37.962Z,86.90
2018-03-11T21:29:06.112Z,86.80
2018-03-11T21:31:34.413Z,86.50
2018-03-11T21:34:02.569Z,86.80
2018-03-11T21:36:30.741Z,86.40
2018-03-11T21:38:58.924Z,86.10
2018-03-11T21:41:27.221Z,85.60
2018-03-11T21:43:55.506Z,85.00
2018-03-11T21:46:24.021Z,85.00
2018-03-11T21:48:53.146Z,85.10
2018-03-11T21:51:21.330Z,85.10
2018-03-11T21:53:49.592Z,85.50
2018-03-11T21:56:22.004Z,85.60
2018-03-11T21:58:50.353Z,85.40
2018-03-11T22:01:18.541Z,85.50
2018-03-11T22:03:47.040Z,85.40
2018-03-11T22:06:16.643Z,84.70
2018-03-11T22:08:46.813Z,84.60
2018-03-11T22:11:15.902Z,84.70
2018-03-11T22:13:44.970Z,84.90
2018-03-11T22:16:13.263Z,84.70
2018-03-11T22:18:42.295Z,84.10
2018-03-11T22:21:10.449Z,84.70
2018-03-11T22:23:39.523Z,84.40
2018-03-11T22:26:07.676Z,84.40
2018-03-11T22:28:35.812Z,84.70
2018-03-11T22:31:03.977Z,84.40
2018-03-11T22:33:32.153Z,84.30
2018-03-11T22:36:00.397Z,84.30
2018-03-11T22:38:29.377Z,85.20
2018-03-11T22:40:57.571Z,84.40
2018-03-11T22:43:26.545Z,84.50
2018-03-11T22:45:54.678Z,84.50
2018-03-11T22:48:23.140Z,84.50
2018-03-11T22:50:51.496Z,84.40
2018-03-11T22:53:19.662Z,84.30
2018-03-11T22:55:48.589Z,86.00
2018-03-11T22:58:17.654Z,85.40
2018-03-11T23:00:45.863Z,85.40
2018-03-11T23:03:14.637Z,85.60
2018-03-11T23:05:42.782Z,85.70
2018-03-11T23:08:11.052Z,85.60
2018-03-11T23:10:39.974Z,86.40
2018-03-11T23:13:08.204Z,86.30
2018-03-11T23:15:36.353Z,86.60
2018-03-11T23:18:04.516Z,86.70
2018-03-11T23:20:32.649Z,86.80
2018-03-11T23:23:01.612Z,86.70
2018-03-11T23:25:30.345Z,86.70
2018-03-11T23:27:59.440Z,86.20
2018-03-11T23:30:28.933Z,85.70
2018-03-11T23:32:57.848Z,85.10
2018-03-11T23:35:26.000Z,85.00
2018-03-11T23:37:54.305Z,84.70
2018-03-11T23:40:22.620Z,84.50
2018-03-11T23:42:50.750Z,84.40
2018-03-11T23:45:19.022Z,84.50
2018-03-11T23:47:47.202Z,84.40
2018-03-11T23:50:15.737Z,84.50
2018-03-11T23:52:44.035Z,84.50
2018-03-11T23:55:13.053Z,85.50
2018-03-11T23:57:41.311Z,84.80
